createdAt,value
2023-05-01T00:00:00.698Z,0.00
2023-05-01T00:01:00.720Z,0.00
2023-05-01T00:02:00.698Z,0.00
2023-05-01T00:03:00.824Z,0.00
2023-05-01T00:04:00.888Z,0.00
2023-05-01T00:05:00.800Z,0.00
2023-05-01T00:06:00.643Z,0.00
2023-05-01T00:07:00.645Z,0.00
2023-05-01T00:08:00.620Z,0.00
2023-05-01T00:09:00.603Z,0.00
2023-05-01T00:10:00.593Z,0.00
2023-05-01T00:11:00.583Z,0.00
2023-05-01T00:12:00.613Z,0.00
2023-05-01T00:13:00.547Z,0.00
2023-05-01T00:14:00.563Z,0.00
2023-05-01T00:15:00.561Z,0.00
2023-05-01T00:16:00.534Z,0.00
2023-05-01T00:17:00.526Z,0.00
2023-05-01T00:18:00.517Z,0.00
2023-05-01T00:19:00.509Z,0.00
2023-05-01T00:20:00.485Z,0.00
2023-05-01T00:21:00.458Z,0.00
2023-05-01T00:22:00.497Z,0.00
2023-05-01T00:23:00.454Z,0.00
2023-05-01T00:24:00.472Z,0.00
2023-05-01T00:25:00.428Z,0.00
2023-05-01T00:26:00.412Z,0.00
2023-05-01T00:27:00.441Z,0.00
2023-05-01T00:28:00.395Z,0.00
2023-05-01T00:29:00.384Z,0.00
2023-05-01T00:30:00.367Z,0.00
2023-05-01T00:31:00.367Z,0.00
2023-05-01T00:32:00.425Z,0.00
2023-05-01T00:33:00.364Z,0.00
2023-05-01T00:34:00.332Z,0.00
2023-05-01T00:35:00.328Z,0.00
2023-05-01T00:36:00.315Z,0.00
2023-05-01T00:37:00.342Z,0.00
2023-05-01T00:38:00.277Z,0.00
2023-05-01T00:39:00.265Z,0.00
2023-05-01T00:40:00.287Z,0.00
2023-05-01T00:41:00.237Z,0.00
2023-05-01T00:42:00.248Z,0.00
2023-05-01T00:43:00.235Z,0.00
2023-05-01T00:44:00.196Z,0.00
2023-05-01T00:45:00.210Z,0.00
2023-05-01T00:46:00.334Z,0.00
2023-05-01T00:47:00.234Z,0.00
2023-05-01T00:48:00.269Z,0.00
2023-05-01T00:49:00.179Z,0.00
2023-05-01T00:50:00.188Z,0.00
2023-05-01T00:51:00.170Z,0.00
2023-05-01T00:52:00.186Z,0.00
2023-05-01T00:53:00.158Z,0.00
2023-05-01T00:54:00.170Z,0.00
2023-05-01T00:55:00.127Z,0.00
2023-05-01T00:56:00.088Z,0.00
2023-05-01T00:57:00.093Z,0.00
2023-05-01T00:58:00.074Z,0.00
2023-05-01T00:59:00.065Z,0.00
2023-05-01T01:00:00.067Z,0.00
2023-05-01T01:01:00.054Z,0.00
2023-05-01T01:02:00.058Z,0.00
2023-05-01T01:03:00.053Z,0.00
2023-05-01T01:04:00.048Z,0.00
2023-05-01T01:05:00.034Z,0.00
2023-05-01T01:05:59.982Z,0.00
2023-05-01T01:07:00.005Z,0.00
2023-05-01T01:07:59.939Z,0.00
2023-05-01T01:08:59.924Z,0.00
2023-05-01T01:09:59.925Z,0.00
2023-05-01T01:10:59.921Z,0.00
2023-05-01T01:11:59.924Z,0.00
2023-05-01T01:12:59.883Z,0.00
2023-05-01T01:13:59.877Z,0.00
2023-05-01T01:14:59.850Z,0.00
2023-05-01T01:15:59.846Z,0.00
2023-05-01T01:16:59.921Z,0.00
2023-05-01T01:17:59.869Z,0.00
2023-05-01T01:18:59.813Z,0.00
2023-05-01T01:19:59.811Z,0.00
2023-05-01T01:20:59.795Z,0.00
2023-05-01T01:21:59.829Z,0.00
2023-05-01T01:22:59.786Z,0.00
2023-05-01T01:23:59.781Z,0.00
2023-05-01T01:24:59.761Z,0.00
2023-05-01T01:25:59.795Z,0.00
2023-05-01T01:26:59.710Z,0.00
2023-05-01T01:27:59.775Z,0.00
2023-05-01T01:28:59.709Z,0.00
2023-05-01T01:29:59.700Z,0.00
2023-05-01T01:30:59.715Z,0.00
2023-05-01T01:31:59.673Z,0.00
2023-05-01T01:32:59.752Z,0.00
2023-05-01T01:33:59.661Z,0.00
2023-05-01T01:34:59.625Z,0.00
2023-05-01T01:35:59.629Z,0.00
2023-05-01T01:36:59.616Z,0.00
2023-05-01T01:37:59.649Z,0.00
2023-05-01T01:38:59.609Z,0.00
2023-05-01T01:39:59.590Z,0.00
2023-05-01T01:40:59.605Z,0.00
2023-05-01T01:41:59.582Z,0.00
2023-05-01T01:42:59.596Z,0.00
2023-05-01T01:43:59.545Z,0.00
2023-05-01T01:44:59.522Z,0.00
2023-05-01T01:45:59.550Z,0.00
2023-05-01T01:46:59.514Z,0.00
2023-05-01T01:47:59.590Z,0.00
2023-05-01T01:48:59.488Z,0.00
2023-05-01T01:49:59.495Z,0.00
2023-05-01T01:50:59.466Z,0.00
2023-05-01T01:51:59.452Z,0.00
2023-05-01T01:52:59.461Z,0.00
2023-05-01T01:53:59.445Z,0.00
2023-05-01T01:54:59.419Z,0.00
2023-05-01T01:56:00.787Z,0.00
2023-05-01T01:56:59.383Z,0.00
2023-05-01T01:57:59.434Z,0.00
2023-05-01T01:58:59.364Z,0.00
2023-05-01T01:59:59.348Z,0.00
2023-05-01T02:00:59.334Z,0.00
2023-05-01T02:01:59.504Z,0.00
2023-05-01T02:02:59.429Z,0.00
2023-05-01T02:03:59.368Z,0.00
2023-05-01T02:04:59.311Z,0.00
2023-05-01T02:05:59.344Z,0.00
2023-05-01T02:06:59.302Z,0.00
2023-05-01T02:07:59.349Z,0.00
2023-05-01T02:08:59.269Z,0.00
2023-05-01T02:09:59.437Z,0.00
2023-05-01T02:11:01.113Z,0.00
2023-05-01T02:11:59.230Z,0.00
2023-05-01T02:12:59.274Z,0.00
2023-05-01T02:13:59.206Z,0.00
2023-05-01T02:14:59.185Z,0.00
2023-05-01T02:15:59.225Z,0.00
2023-05-01T02:16:59.154Z,0.00
2023-05-01T02:17:59.308Z,0.00
2023-05-01T02:18:59.142Z,0.00
2023-05-01T02:19:59.135Z,0.00
2023-05-01T02:20:59.130Z,0.00
2023-05-01T02:21:59.112Z,0.00
2023-05-01T02:22:59.139Z,0.00
2023-05-01T02:23:59.083Z,0.00
2023-05-01T02:24:59.078Z,0.00
2023-05-01T02:25:59.071Z,0.00
2023-05-01T02:26:59.062Z,0.00
2023-05-01T02:27:59.089Z,0.00
2023-05-01T02:28:59.033Z,0.00
2023-05-01T02:29:59.217Z,0.00
2023-05-01T02:30:59.026Z,0.00
2023-05-01T02:31:59.189Z,0.00
2023-05-01T02:32:59.061Z,0.00
2023-05-01T02:33:58.974Z,0.00
2023-05-01T02:34:58.960Z,0.00
2023-05-01T02:35:58.962Z,0.00
2023-05-01T02:36:58.954Z,0.00
2023-05-01T02:37:58.978Z,0.00
2023-05-01T02:38:58.908Z,0.00
2023-05-01T02:39:59.107Z,0.00
2023-05-01T02:40:58.900Z,0.00
2023-05-01T02:41:58.920Z,0.00
2023-05-01T02:42:58.921Z,0.00
2023-05-01T02:43:58.874Z,0.00
2023-05-01T02:44:58.860Z,0.00
2023-05-01T02:45:59.096Z,0.00
2023-05-01T02:46:58.858Z,0.00
2023-05-01T02:47:58.893Z,0.00
2023-05-01T02:48:58.815Z,0.00
2023-05-01T02:49:59.059Z,0.00
2023-05-01T02:50:58.796Z,0.00
2023-05-01T02:51:58.787Z,0.00
2023-05-01T02:52:58.828Z,0.00
2023-05-01T02:53:58.787Z,0.00
2023-05-01T02:54:58.741Z,0.00
2023-05-01T02:55:58.724Z,0.00
2023-05-01T02:56:58.726Z,0.00
2023-05-01T02:57:58.761Z,0.00
2023-05-01T02:58:58.694Z,0.00
2023-05-01T02:59:58.701Z,0.00
2023-05-01T03:00:58.706Z,0.00
2023-05-01T03:01:58.682Z,0.00
2023-05-01T03:02:58.759Z,0.00
2023-05-01T03:03:58.737Z,0.00
2023-05-01T03:04:58.711Z,0.00
2023-05-01T03:05:58.681Z,0.00
2023-05-01T03:06:58.651Z,0.00
2023-05-01T03:07:58.691Z,0.00
2023-05-01T03:08:58.595Z,0.00
2023-05-01T03:09:58.720Z,0.00
2023-05-01T03:10:58.575Z,0.00
2023-05-01T03:11:58.555Z,0.00
2023-05-01T03:12:58.582Z,0.00
2023-05-01T03:13:58.553Z,0.00
2023-05-01T03:14:58.534Z,0.00
2023-05-01T03:15:58.540Z,0.00
2023-05-01T03:16:58.626Z,0.00
2023-05-01T03:17:58.559Z,0.00
2023-05-01T03:18:58.474Z,5.62
2023-05-01T03:19:58.602Z,5.62
2023-05-01T03:20:58.472Z,5.62
2023-05-01T03:21:58.469Z,5.62
2023-05-01T03:22:58.480Z,5.62
2023-05-01T03:23:58.435Z,5.62
2023-05-01T03:24:58.396Z,5.62
2023-05-01T03:25:58.407Z,11.25
2023-05-01T03:26:58.388Z,11.25
2023-05-01T03:27:58.396Z,11.25
2023-05-01T03:28:58.413Z,11.25
2023-05-01T03:29:58.457Z,11.25
2023-05-01T03:30:58.354Z,16.88
2023-05-01T03:31:58.430Z,16.88
2023-05-01T03:32:58.347Z,16.88
2023-05-01T03:33:58.366Z,16.88
2023-05-01T03:34:58.373Z,22.50
2023-05-01T03:35:58.293Z,22.50
2023-05-01T03:36:58.306Z,28.12
2023-05-01T03:37:58.270Z,28.12
2023-05-01T03:38:58.298Z,28.12
2023-05-01T03:39:58.428Z,33.75
2023-05-01T03:40:58.242Z,33.75
2023-05-01T03:41:58.232Z,33.75
2023-05-01T03:42:58.208Z,39.38
2023-05-01T03:43:58.244Z,39.38
2023-05-01T03:44:58.197Z,45.00
2023-05-01T03:45:58.229Z,50.62
2023-05-01T03:46:58.170Z,50.62
2023-05-01T03:47:58.206Z,56.25
2023-05-01T03:48:58.191Z,56.25
2023-05-01T03:49:58.381Z,61.88
2023-05-01T03:50:58.145Z,61.88
2023-05-01T03:51:58.128Z,67.50
2023-05-01T03:52:58.119Z,67.50
2023-05-01T03:53:58.133Z,73.12
2023-05-01T03:54:58.101Z,78.75
2023-05-01T03:55:58.080Z,78.75
2023-05-01T03:56:58.078Z,84.38
2023-05-01T03:57:58.082Z,84.38
2023-05-01T03:58:58.087Z,90.00
2023-05-01T03:59:58.271Z,95.62
2023-05-01T04:00:58.033Z,95.62
2023-05-01T04:01:58.058Z,101.25
2023-05-01T04:02:58.257Z,101.25
2023-05-01T04:03:58.303Z,106.88
2023-05-01T04:04:57.979Z,106.88
2023-05-01T04:05:58.058Z,112.50
2023-05-01T04:06:57.959Z,112.50
2023-05-01T04:07:57.976Z,112.50
2023-05-01T04:08:57.951Z,118.12
2023-05-01T04:09:58.087Z,118.12
2023-05-01T04:10:57.907Z,118.12
2023-05-01T04:11:57.893Z,123.75
2023-05-01T04:12:57.884Z,123.75
2023-05-01T04:13:57.904Z,129.38
2023-05-01T04:14:57.898Z,135.00
2023-05-01T04:15:57.950Z,140.62
2023-05-01T04:16:57.827Z,146.25
2023-05-01T04:17:57.874Z,174.38
2023-05-01T04:18:57.822Z,213.75
2023-05-01T04:19:58.252Z,236.25
2023-05-01T04:20:57.805Z,219.38
2023-05-01T04:21:57.804Z,230.62
2023-05-01T04:22:57.768Z,247.50
2023-05-01T04:23:57.760Z,270.00
2023-05-01T04:24:57.787Z,292.50
2023-05-01T04:25:57.747Z,303.75
2023-05-01T04:26:57.762Z,315.00
2023-05-01T04:27:57.738Z,315.00
2023-05-01T04:28:57.744Z,309.38
2023-05-01T04:29:58.266Z,298.12
2023-05-01T04:30:57.727Z,326.25
2023-05-01T04:31:57.849Z,365.62
2023-05-01T04:32:57.720Z,371.25
2023-05-01T04:33:57.677Z,376.88
2023-05-01T04:34:58.007Z,371.25
2023-05-01T04:35:57.640Z,382.50
2023-05-01T04:36:57.626Z,399.38
2023-05-01T04:37:57.625Z,393.75
2023-05-01T04:38:57.597Z,376.88
2023-05-01T04:39:58.045Z,337.50
2023-05-01T04:40:57.574Z,343.12
2023-05-01T04:41:57.572Z,348.75
2023-05-01T04:42:57.546Z,337.50
2023-05-01T04:43:57.552Z,348.75
2023-05-01T04:44:57.558Z,326.25
2023-05-01T04:45:57.517Z,303.75
2023-05-01T04:46:57.567Z,275.62
2023-05-01T04:47:57.583Z,270.00
2023-05-01T04:48:57.456Z,270.00
2023-05-01T04:49:57.668Z,270.00
2023-05-01T04:50:57.467Z,264.38
2023-05-01T04:51:57.441Z,264.38
2023-05-01T04:52:57.433Z,270.00
2023-05-01T04:53:57.470Z,281.25
2023-05-01T04:54:57.408Z,286.88
2023-05-01T04:55:57.395Z,286.88
2023-05-01T04:56:57.381Z,292.50
2023-05-01T04:57:57.376Z,292.50
2023-05-01T04:58:57.400Z,286.88
2023-05-01T04:59:57.852Z,286.88
2023-05-01T05:00:57.354Z,292.50
2023-05-01T05:01:57.486Z,298.12
2023-05-01T05:02:57.430Z,303.75
2023-05-01T05:03:57.586Z,298.12
2023-05-01T05:04:57.287Z,298.12
2023-05-01T05:05:57.341Z,298.12
2023-05-01T05:06:57.287Z,298.12
2023-05-01T05:07:57.306Z,298.12
2023-05-01T05:08:57.261Z,298.12
2023-05-01T05:09:57.521Z,303.75
2023-05-01T05:10:57.241Z,303.75
2023-05-01T05:11:57.213Z,303.75
2023-05-01T05:12:57.248Z,303.75
2023-05-01T05:13:57.220Z,309.38
2023-05-01T05:14:57.246Z,309.38
2023-05-01T05:15:57.175Z,315.00
2023-05-01T05:16:57.189Z,315.00
2023-05-01T05:17:57.260Z,315.00
2023-05-01T05:18:57.147Z,315.00
2023-05-01T05:19:57.307Z,320.62
2023-05-01T05:20:57.127Z,320.62
2023-05-01T05:21:57.116Z,320.62
2023-05-01T05:22:57.116Z,320.62
2023-05-01T05:23:57.093Z,326.25
2023-05-01T05:24:57.110Z,326.25
2023-05-01T05:25:57.069Z,326.25
2023-05-01T05:26:57.065Z,320.62
2023-05-01T05:27:57.036Z,326.25
2023-05-01T05:28:57.044Z,326.25
2023-05-01T05:29:57.201Z,343.12
2023-05-01T05:30:57.012Z,354.38
2023-05-01T05:31:57.028Z,360.00
2023-05-01T05:32:57.045Z,365.62
2023-05-01T05:33:56.971Z,365.62
2023-05-01T05:34:57.008Z,365.62
2023-05-01T05:35:56.953Z,365.62
2023-05-01T05:36:56.943Z,365.62
2023-05-01T05:37:56.919Z,365.62
2023-05-01T05:38:56.932Z,365.62
2023-05-01T05:39:57.214Z,365.62
2023-05-01T05:40:56.891Z,371.25
2023-05-01T05:41:56.901Z,371.25
2023-05-01T05:42:56.864Z,376.88
2023-05-01T05:43:56.865Z,376.88
2023-05-01T05:44:56.883Z,382.50
2023-05-01T05:45:56.896Z,382.50
2023-05-01T05:46:56.829Z,388.12
2023-05-01T05:47:56.937Z,388.12
2023-05-01T05:48:56.798Z,393.75
2023-05-01T05:49:56.992Z,393.75
2023-05-01T05:50:56.787Z,393.75
2023-05-01T05:51:56.793Z,399.38
2023-05-01T05:52:56.778Z,399.38
2023-05-01T05:53:56.743Z,393.75
2023-05-01T05:54:56.830Z,393.75
2023-05-01T05:55:56.740Z,393.75
2023-05-01T05:56:56.739Z,393.75
2023-05-01T05:57:56.736Z,388.12
2023-05-01T05:58:56.699Z,393.75
2023-05-01T05:59:56.958Z,388.12
2023-05-01T06:00:56.679Z,388.12
2023-05-01T06:01:56.675Z,388.12
2023-05-01T06:02:56.770Z,382.50
2023-05-01T06:03:56.743Z,376.88
2023-05-01T06:04:56.671Z,371.25
2023-05-01T06:05:56.765Z,365.62
2023-05-01T06:06:56.682Z,371.25
2023-05-01T06:07:56.596Z,376.88
2023-05-01T06:08:56.606Z,382.50
2023-05-01T06:09:56.801Z,382.50
2023-05-01T06:10:56.577Z,388.12
2023-05-01T06:11:56.542Z,388.12
2023-05-01T06:13:05.451Z,393.75
2023-05-01T06:13:57.532Z,399.38
2023-05-01T06:14:56.552Z,405.00
2023-05-01T06:15:56.531Z,405.00
2023-05-01T06:16:56.486Z,410.62
2023-05-01T06:17:56.565Z,405.00
2023-05-01T06:18:56.496Z,410.62
2023-05-01T06:19:56.695Z,410.62
2023-05-01T06:20:56.433Z,421.88
2023-05-01T06:21:56.428Z,427.50
2023-05-01T06:22:56.431Z,433.12
2023-05-01T06:23:56.442Z,433.12
2023-05-01T06:24:56.422Z,438.75
2023-05-01T06:25:56.384Z,438.75
2023-05-01T06:26:56.382Z,444.38
2023-05-01T06:27:56.376Z,444.38
2023-05-01T06:28:56.410Z,450.00
2023-05-01T06:29:56.654Z,450.00
2023-05-01T06:30:56.363Z,455.62
2023-05-01T06:31:56.410Z,461.25
2023-05-01T06:32:56.368Z,466.88
2023-05-01T06:33:56.342Z,472.50
2023-05-01T06:34:56.291Z,472.50
2023-05-01T06:35:56.274Z,478.12
2023-05-01T06:36:56.290Z,478.12
2023-05-01T06:37:56.321Z,478.12
2023-05-01T06:38:56.232Z,483.75
2023-05-01T06:39:56.466Z,489.38
2023-05-01T06:40:56.218Z,500.62
2023-05-01T06:41:56.196Z,506.25
2023-05-01T06:42:56.187Z,511.88
2023-05-01T06:43:56.213Z,523.12
2023-05-01T06:44:56.197Z,534.38
2023-05-01T06:45:56.167Z,545.62
2023-05-01T06:46:56.171Z,556.88
2023-05-01T06:47:56.182Z,562.50
2023-05-01T06:48:56.107Z,568.12
2023-05-01T06:49:56.440Z,573.75
2023-05-01T06:50:56.116Z,573.75
2023-05-01T06:51:56.105Z,573.75
2023-05-01T06:52:56.093Z,573.75
2023-05-01T06:53:56.070Z,573.75
2023-05-01T06:54:56.097Z,573.75
2023-05-01T06:55:56.058Z,585.00
2023-05-01T06:56:56.054Z,585.00
2023-05-01T06:57:56.031Z,585.00
2023-05-01T06:58:56.026Z,585.00
2023-05-01T06:59:56.288Z,579.38
2023-05-01T07:00:56.047Z,573.75
2023-05-01T07:01:56.001Z,568.12
2023-05-01T07:02:56.073Z,556.88
2023-05-01T07:03:55.961Z,528.75
2023-05-01T07:04:55.977Z,495.00
2023-05-01T07:05:55.951Z,495.00
2023-05-01T07:06:55.939Z,506.25
2023-05-01T07:08:01.297Z,523.12
2023-05-01T07:08:56.925Z,528.75
2023-05-01T07:09:56.058Z,534.38
2023-05-01T07:10:55.899Z,540.00
2023-05-01T07:11:55.881Z,551.25
2023-05-01T07:12:55.879Z,556.88
2023-05-01T07:13:55.846Z,562.50
2023-05-01T07:14:55.889Z,573.75
2023-05-01T07:15:55.848Z,585.00
2023-05-01T07:16:55.910Z,590.62
2023-05-01T07:17:55.807Z,596.25
2023-05-01T07:18:55.787Z,601.88
2023-05-01T07:19:56.097Z,607.50
2023-05-01T07:20:55.763Z,618.75
2023-05-01T07:21:55.773Z,613.12
2023-05-01T07:22:55.783Z,618.75
2023-05-01T07:23:55.720Z,618.75
2023-05-01T07:24:55.779Z,630.00
2023-05-01T07:25:55.696Z,646.88
2023-05-01T07:26:55.720Z,663.75
2023-05-01T07:27:55.712Z,691.88
2023-05-01T07:28:55.691Z,714.38
2023-05-01T07:29:55.908Z,731.25
2023-05-01T07:30:55.669Z,753.75
2023-05-01T07:31:55.733Z,776.25
2023-05-01T07:32:55.691Z,787.50
2023-05-01T07:33:55.626Z,815.62
2023-05-01T07:34:55.662Z,832.50
2023-05-01T07:35:55.602Z,855.00
2023-05-01T07:36:55.594Z,877.50
2023-05-01T07:37:55.596Z,905.62
2023-05-01T07:38:55.586Z,928.12
2023-05-01T07:39:55.958Z,956.25
2023-05-01T07:40:55.571Z,984.38
2023-05-01T07:41:55.540Z,1006.88
2023-05-01T07:42:55.555Z,1035.00
2023-05-01T07:43:55.497Z,1068.75
2023-05-01T07:44:55.544Z,1096.88
2023-05-01T07:45:55.508Z,1158.75
2023-05-01T07:46:55.471Z,1198.12
2023-05-01T07:47:55.532Z,1243.12
2023-05-01T07:48:55.458Z,1231.88
2023-05-01T07:49:55.872Z,1215.00
2023-05-01T07:50:55.443Z,1215.00
2023-05-01T07:51:55.422Z,1226.25
2023-05-01T07:52:55.418Z,1293.75
2023-05-01T07:53:55.410Z,1411.88
2023-05-01T07:54:55.422Z,1591.88
2023-05-01T07:55:55.367Z,1636.88
2023-05-01T07:56:55.370Z,1743.75
2023-05-01T07:57:55.360Z,1845.00
2023-05-01T07:58:55.353Z,1867.50
2023-05-01T07:59:55.646Z,1929.38
2023-05-01T08:00:55.294Z,2064.38
2023-05-01T08:01:55.352Z,2086.88
2023-05-01T08:02:55.555Z,2165.62
2023-05-01T08:03:55.409Z,2137.50
2023-05-01T08:04:55.503Z,1963.12
2023-05-01T08:05:55.290Z,1783.12
2023-05-01T08:06:55.375Z,1541.25
2023-05-01T08:07:55.220Z,1631.25
2023-05-01T08:08:55.251Z,1417.50
2023-05-01T08:09:57.868Z,1546.88
2023-05-01T08:10:55.241Z,1794.38
2023-05-01T08:11:55.198Z,2019.38
2023-05-01T08:12:55.216Z,2115.00
2023-05-01T08:13:55.146Z,2210.62
2023-05-01T08:14:55.215Z,2238.75
2023-05-01T08:15:55.353Z,2289.38
2023-05-01T08:16:55.144Z,2345.62
2023-05-01T08:17:55.142Z,2385.00
2023-05-01T08:18:55.161Z,1681.88
2023-05-01T08:19:55.397Z,1833.75
2023-05-01T08:20:55.122Z,2289.38
2023-05-01T08:21:55.084Z,2289.38
2023-05-01T08:22:55.070Z,2311.88
2023-05-01T08:23:55.054Z,2334.38
2023-05-01T08:24:55.082Z,2356.88
2023-05-01T08:25:55.047Z,2401.88
2023-05-01T08:26:55.025Z,2430.00
2023-05-01T08:27:55.001Z,2469.38
2023-05-01T08:28:55.007Z,2497.50
2023-05-01T08:29:55.275Z,2480.62
2023-05-01T08:30:54.985Z,2430.00
2023-05-01T08:31:55.158Z,2261.25
2023-05-01T08:32:55.039Z,2171.25
2023-05-01T08:33:54.944Z,2238.75
2023-05-01T08:34:55.008Z,2295.00
2023-05-01T08:35:54.926Z,2323.12
2023-05-01T08:36:54.936Z,2328.75
2023-05-01T08:37:54.915Z,2131.88
2023-05-01T08:38:54.885Z,2030.62
2023-05-01T08:39:55.140Z,2098.12
2023-05-01T08:40:54.855Z,2002.50
2023-05-01T08:41:54.855Z,1957.50
2023-05-01T08:42:54.844Z,2019.38
2023-05-01T08:43:54.876Z,2075.62
2023-05-01T08:44:54.843Z,2143.12
2023-05-01T08:45:54.914Z,2171.25
2023-05-01T08:46:54.864Z,2165.62
2023-05-01T08:47:54.895Z,2193.75
2023-05-01T08:48:54.787Z,2148.75
2023-05-01T08:49:55.039Z,2171.25
2023-05-01T08:50:54.830Z,2295.00
2023-05-01T08:51:54.743Z,2283.75
2023-05-01T08:52:54.763Z,2266.88
2023-05-01T08:53:54.736Z,2244.38
2023-05-01T08:54:54.726Z,2250.00
2023-05-01T08:55:54.756Z,2233.12
2023-05-01T08:56:54.693Z,2295.00
2023-05-01T08:57:54.693Z,2255.62
2023-05-01T08:58:54.694Z,2266.88
2023-05-01T08:59:54.811Z,2283.75
2023-05-01T09:00:54.698Z,2295.00
2023-05-01T09:01:54.711Z,2250.00
2023-05-01T09:02:54.646Z,2221.88
2023-05-01T09:03:54.684Z,2210.62
2023-05-01T09:04:54.617Z,2300.62
2023-05-01T09:05:54.630Z,2272.50
2023-05-01T09:06:54.619Z,2295.00
2023-05-01T09:07:54.582Z,2272.50
2023-05-01T09:08:54.550Z,2266.88
2023-05-01T09:09:54.794Z,2278.12
2023-05-01T09:10:54.580Z,2300.62
2023-05-01T09:11:54.530Z,2278.12
2023-05-01T09:12:54.531Z,2255.62
2023-05-01T09:13:54.524Z,2238.75
2023-05-01T09:14:54.493Z,2238.75
2023-05-01T09:15:54.585Z,2295.00
2023-05-01T09:16:54.615Z,2283.75
2023-05-01T09:17:54.489Z,2295.00
2023-05-01T09:18:54.463Z,2176.88
2023-05-01T09:19:54.589Z,2092.50
2023-05-01T09:20:54.471Z,2137.50
2023-05-01T09:21:54.434Z,2131.88
2023-05-01T09:22:54.416Z,2199.38
2023-05-01T09:23:54.412Z,2300.62
2023-05-01T09:24:54.386Z,2295.00
2023-05-01T09:25:54.425Z,2250.00
2023-05-01T09:26:54.362Z,2261.25
2023-05-01T09:27:54.370Z,2210.62
2023-05-01T09:28:54.378Z,2238.75
2023-05-01T09:29:54.464Z,2233.12
2023-05-01T09:30:54.372Z,2255.62
2023-05-01T09:31:54.423Z,2244.38
2023-05-01T09:32:54.347Z,2278.12
2023-05-01T09:33:54.297Z,2272.50
2023-05-01T09:34:54.286Z,2250.00
2023-05-01T09:35:54.371Z,2221.88
2023-05-01T09:36:54.273Z,2323.12
2023-05-01T09:37:54.252Z,2311.88
2023-05-01T09:38:54.233Z,2289.38
2023-05-01T09:39:54.494Z,2311.88
2023-05-01T09:40:54.246Z,2334.38
2023-05-01T09:41:54.222Z,2295.00
2023-05-01T09:42:54.224Z,2283.75
2023-05-01T09:43:54.202Z,2261.25
2023-05-01T09:44:54.205Z,2379.38
2023-05-01T09:45:54.330Z,2340.00
2023-05-01T09:46:54.161Z,2373.75
2023-05-01T09:47:54.205Z,2351.25
2023-05-01T09:48:54.150Z,2311.88
2023-05-01T09:49:54.380Z,2311.88
2023-05-01T09:50:54.312Z,2306.25
2023-05-01T09:51:54.117Z,2272.50
2023-05-01T09:52:54.080Z,2323.12
2023-05-01T09:53:54.088Z,2379.38
2023-05-01T09:54:54.063Z,2407.50
2023-05-01T09:55:54.085Z,2407.50
2023-05-01T09:56:54.081Z,2435.62
2023-05-01T09:57:54.068Z,2458.12
2023-05-01T09:58:54.033Z,2508.75
2023-05-01T09:59:54.274Z,2458.12
2023-05-01T10:00:54.020Z,2373.75
2023-05-01T10:01:54.112Z,2176.88
2023-05-01T10:02:54.132Z,2323.12
2023-05-01T10:03:54.128Z,2430.00
2023-05-01T10:04:53.950Z,2548.12
2023-05-01T10:05:53.955Z,2598.75
2023-05-01T10:06:54.028Z,2610.00
2023-05-01T10:07:53.933Z,2536.88
2023-05-01T10:08:53.921Z,2137.50
2023-05-01T10:09:53.986Z,2328.75
2023-05-01T10:10:53.927Z,1912.50
2023-05-01T10:11:53.967Z,1901.25
2023-05-01T10:12:53.917Z,2019.38
2023-05-01T10:13:53.863Z,2446.88
2023-05-01T10:14:53.884Z,2649.38
2023-05-01T10:15:53.893Z,2722.50
2023-05-01T10:16:53.940Z,2716.88
2023-05-01T10:17:54.412Z,2666.25
2023-05-01T10:18:53.820Z,2660.62
2023-05-01T10:19:53.809Z,2700.00
2023-05-01T10:20:53.792Z,2655.00
2023-05-01T10:21:53.812Z,2553.75
2023-05-01T10:22:53.764Z,2666.25
2023-05-01T10:23:53.772Z,2643.75
2023-05-01T10:24:53.744Z,2615.62
2023-05-01T10:25:53.790Z,2632.50
2023-05-01T10:26:53.769Z,2441.25
2023-05-01T10:27:53.715Z,2520.00
2023-05-01T10:28:53.717Z,2491.88
2023-05-01T10:29:53.765Z,2441.25
2023-05-01T10:30:53.690Z,2390.62
2023-05-01T10:31:53.797Z,2323.12
2023-05-01T10:32:53.674Z,2244.38
2023-05-01T10:33:53.644Z,2542.50
2023-05-01T10:34:53.765Z,2598.75
2023-05-01T10:35:53.655Z,2610.00
2023-05-01T10:36:53.689Z,2559.38
2023-05-01T10:37:53.672Z,2525.62
2023-05-01T10:38:53.613Z,2801.25
2023-05-01T10:39:53.591Z,2643.75
2023-05-01T10:40:53.583Z,2756.25
2023-05-01T10:41:53.596Z,3121.88
2023-05-01T10:42:53.598Z,3245.62
2023-05-01T10:43:53.568Z,3240.00
2023-05-01T10:44:53.583Z,3217.50
2023-05-01T10:45:53.567Z,3487.50
2023-05-01T10:46:53.609Z,3285.00
2023-05-01T10:47:53.579Z,2975.62
2023-05-01T10:48:53.505Z,3166.88
2023-05-01T10:49:53.510Z,2896.88
2023-05-01T10:50:53.480Z,2851.88
2023-05-01T10:51:53.515Z,3183.75
2023-05-01T10:52:53.450Z,3127.50
2023-05-01T10:53:53.424Z,2593.12
2023-05-01T10:54:53.472Z,3065.62
2023-05-01T10:55:53.427Z,3307.50
2023-05-01T10:56:53.443Z,3622.50
2023-05-01T10:57:53.408Z,3616.88
2023-05-01T10:58:53.414Z,3746.25
2023-05-01T10:59:53.373Z,4016.25
2023-05-01T11:00:53.373Z,3645.00
2023-05-01T11:01:53.540Z,3526.88
2023-05-01T11:02:53.340Z,3678.75
2023-05-01T11:03:53.333Z,4269.38
2023-05-01T11:04:53.344Z,3937.50
2023-05-01T11:05:53.401Z,4455.00
2023-05-01T11:06:53.451Z,4725.00
2023-05-01T11:07:53.290Z,4978.12
2023-05-01T11:08:53.276Z,5034.38
2023-05-01T11:09:53.276Z,5771.25
2023-05-01T11:10:53.272Z,5726.25
2023-05-01T11:11:53.271Z,6063.75
2023-05-01T11:12:53.235Z,6840.00
2023-05-01T11:13:53.236Z,7616.25
2023-05-01T11:14:53.254Z,5523.75
2023-05-01T11:15:53.242Z,6738.75
2023-05-01T11:16:53.292Z,8291.25
2023-05-01T11:17:53.245Z,8595.00
2023-05-01T11:18:53.176Z,9202.50
2023-05-01T11:19:53.172Z,9939.38
2023-05-01T11:20:53.171Z,10170.00
2023-05-01T11:21:53.202Z,11683.12
2023-05-01T11:22:53.127Z,14422.50
2023-05-01T11:23:53.137Z,15210.00
2023-05-01T11:24:53.109Z,12386.25
2023-05-01T11:25:53.101Z,13640.62
2023-05-01T11:26:53.126Z,12425.62
2023-05-01T11:27:53.129Z,10023.75
2023-05-01T11:28:53.061Z,6339.38
2023-05-01T11:29:53.058Z,4387.50
2023-05-01T11:30:53.025Z,3504.38
2023-05-01T11:31:53.116Z,3498.75
2023-05-01T11:32:53.085Z,4162.50
2023-05-01T11:33:53.027Z,5163.75
2023-05-01T11:34:53.029Z,4803.75
2023-05-01T11:35:52.988Z,4370.62
2023-05-01T11:36:53.008Z,2846.25
2023-05-01T11:37:52.971Z,3358.12
2023-05-01T11:38:52.949Z,3465.00
2023-05-01T11:39:52.970Z,3031.88
2023-05-01T11:40:52.939Z,3510.00
2023-05-01T11:41:52.986Z,3161.25
2023-05-01T11:42:52.957Z,3279.38
2023-05-01T11:43:52.930Z,3504.38
2023-05-01T11:44:52.883Z,3301.88
2023-05-01T11:45:52.987Z,3279.38
2023-05-01T11:46:52.875Z,3583.12
2023-05-01T11:47:52.954Z,3414.38
2023-05-01T11:48:52.878Z,3577.50
2023-05-01T11:49:52.857Z,2542.50
2023-05-01T11:50:52.829Z,3313.12
2023-05-01T11:51:52.830Z,2486.25
2023-05-01T11:52:52.861Z,2351.25
2023-05-01T11:53:52.838Z,2148.75
2023-05-01T11:54:52.793Z,2356.88
2023-05-01T11:55:52.797Z,2435.62
2023-05-01T11:56:52.759Z,1794.38
2023-05-01T11:57:52.792Z,1591.88
2023-05-01T11:58:52.731Z,1479.38
2023-05-01T11:59:52.729Z,1501.88
2023-05-01T12:00:52.719Z,1462.50
2023-05-01T12:01:52.812Z,1501.88
2023-05-01T12:02:52.831Z,1670.62
2023-05-01T12:03:52.804Z,2604.38
2023-05-01T12:04:52.926Z,2666.25
2023-05-01T12:05:52.689Z,3391.88
2023-05-01T12:06:52.767Z,3600.00
2023-05-01T12:07:52.713Z,3740.62
2023-05-01T12:08:52.697Z,3639.38
2023-05-01T12:09:52.654Z,3695.62
2023-05-01T12:10:52.732Z,3661.88
2023-05-01T12:11:53.139Z,3532.50
2023-05-01T12:12:52.670Z,3622.50
2023-05-01T12:13:52.627Z,3729.38
2023-05-01T12:14:52.575Z,3217.50
2023-05-01T12:15:52.633Z,2778.75
2023-05-01T12:16:52.654Z,2756.25
2023-05-01T12:17:52.685Z,3105.00
2023-05-01T12:18:52.610Z,3380.62
2023-05-01T12:19:52.568Z,2671.88
2023-05-01T12:20:52.536Z,2953.12
2023-05-01T12:21:52.499Z,3594.38
2023-05-01T12:22:52.530Z,3819.38
2023-05-01T12:23:52.468Z,3864.38
2023-05-01T12:24:52.488Z,3082.50
2023-05-01T12:25:52.465Z,3346.88
2023-05-01T12:26:52.445Z,3144.38
2023-05-01T12:27:52.486Z,3037.50
2023-05-01T12:28:52.431Z,3369.38
2023-05-01T12:29:52.416Z,3470.62
2023-05-01T12:30:52.416Z,3223.12
2023-05-01T12:31:52.471Z,3386.25
2023-05-01T12:32:52.472Z,2970.00